createdAt,value
2022-08-17T00:01:30.262Z,97.41
2022-08-17T00:04:11.619Z,97.50
2022-08-17T00:06:38.286Z,98.26
2022-08-17T00:09:05.478Z,98.17
2022-08-17T00:11:39.692Z,98.38
2022-08-17T00:14:09.719Z,98.45
2022-08-17T00:16:55.822Z,98.64
2022-08-17T00:19:25.267Z,98.87
2022-08-17T00:22:32.623Z,99.02
2022-08-17T00:24:39.783Z,99.33
2022-08-17T00:27:06.449Z,99.51
2022-08-17T00:29:32.911Z,99.18
2022-08-17T00:31:59.557Z,99.26
2022-08-17T00:34:27.932Z,99.54
2022-08-17T00:36:54.521Z,100.00
2022-08-17T00:39:20.977Z,100.00
2022-08-17T00:41:47.685Z,100.00
2022-08-17T00:44:15.603Z,100.00
2022-08-17T00:46:43.580Z,100.00
2022-08-17T00:49:11.855Z,100.00
2022-08-17T00:51:46.734Z,100.00
2022-08-17T00:54:18.490Z,100.00
2022-08-17T00:56:48.521Z,100.00
2022-08-17T00:59:18.910Z,100.00
2022-08-17T01:01:46.442Z,100.00
2022-08-17T01:04:13.157Z,100.00
2022-08-17T01:06:40.777Z,100.00
2022-08-17T01:09:08.662Z,100.00
2022-08-17T01:11:37.126Z,100.00
2022-08-17T01:14:04.050Z,100.00
2022-08-17T01:16:31.609Z,100.00
2022-08-17T01:19:13.803Z,100.00
2022-08-17T01:22:27.116Z,100.00
2022-08-17T01:24:58.969Z,100.00
2022-08-17T01:27:26.763Z,100.00
2022-08-17T01:29:58.130Z,100.00
2022-08-17T01:32:26.683Z,100.00
2022-08-17T01:34:53.800Z,100.00
2022-08-17T01:37:28.676Z,100.00
2022-08-17T01:40:00.673Z,100.00
2022-08-17T01:42:40.357Z,100.00
2022-08-17T01:45:14.620Z,100.00
2022-08-17T01:47:41.692Z,100.00
2022-08-17T01:50:11.268Z,100.00
2022-08-17T01:52:38.125Z,100.00
2022-08-17T01:55:05.308Z,100.00
2022-08-17T01:57:31.774Z,100.00
2022-08-17T01:59:58.692Z,100.00
2022-08-17T02:02:30.908Z,100.00
2022-08-17T02:04:58.978Z,100.00
2022-08-17T02:07:26.976Z,100.00
2022-08-17T02:09:53.644Z,100.00
2022-08-17T02:12:38.538Z,100.00
2022-08-17T02:15:07.816Z,100.00
2022-08-17T02:17:35.073Z,100.00
2022-08-17T02:20:02.031Z,100.00
2022-08-17T02:22:28.929Z,100.00
2022-08-17T02:25:00.952Z,100.00
2022-08-17T02:27:28.624Z,100.00
2022-08-17T02:29:55.150Z,100.00
2022-08-17T02:32:27.832Z,100.00
2022-08-17T02:34:56.535Z,100.00
2022-08-17T02:37:23.124Z,100.00
2022-08-17T02:39:49.645Z,100.00
2022-08-17T02:42:16.292Z,100.00
2022-08-17T02:44:42.907Z,100.00
2022-08-17T02:47:11.878Z,100.00
2022-08-17T02:49:38.493Z,100.00
2022-08-17T02:52:06.603Z,100.00
2022-08-17T02:54:41.159Z,100.00
2022-08-17T02:57:09.158Z,100.00
2022-08-17T02:59:35.631Z,100.00
2022-08-17T03:02:04.354Z,100.00
2022-08-17T03:04:31.196Z,100.00
2022-08-17T03:07:01.848Z,100.00
2022-08-17T03:09:28.326Z,100.00
2022-08-17T03:11:55.832Z,100.00
2022-08-17T03:14:26.242Z,100.00
2022-08-17T03:16:53.040Z,100.00
2022-08-17T03:19:19.825Z,100.00
2022-08-17T03:21:46.261Z,100.00
2022-08-17T03:24:21.677Z,100.00
2022-08-17T03:26:55.188Z,100.00
2022-08-17T03:29:21.717Z,100.00
2022-08-17T03:31:49.211Z,100.00
2022-08-17T03:34:16.555Z,100.00
2022-08-17T03:36:43.397Z,100.00
2022-08-17T03:39:10.170Z,100.00
2022-08-17T03:41:36.912Z,100.00
2022-08-17T03:44:03.888Z,100.00
2022-08-17T03:46:49.232Z,100.00
2022-08-17T03:49:34.540Z,100.00
2022-08-17T03:52:19.824Z,100.00
2022-08-17T03:55:05.122Z,100.00
2022-08-17T03:57:32.507Z,100.00
2022-08-17T03:59:59.709Z,100.00
2022-08-17T04:02:32.500Z,100.00
2022-08-17T04:04:59.677Z,100.00
2022-08-17T04:07:30.654Z,100.00
2022-08-17T04:09:59.386Z,100.00
2022-08-17T04:12:30.972Z,100.00
2022-08-17T04:14:58.742Z,100.00
2022-08-17T04:17:27.809Z,100.00
2022-08-17T04:19:55.282Z,100.00
2022-08-17T04:22:30.847Z,100.00
2022-08-17T04:25:14.650Z,100.00
2022-08-17T04:27:41.208Z,100.00
2022-08-17T04:30:08.356Z,100.00
2022-08-17T04:33:10.644Z,100.00
2022-08-17T04:35:42.813Z,98.17
2022-08-17T04:38:11.924Z,97.03
2022-08-17T04:40:56.974Z,97.07
2022-08-17T04:43:25.001Z,96.43
2022-08-17T04:45:58.208Z,96.30
2022-08-17T04:48:36.487Z,95.42
2022-08-17T04:51:10.699Z,95.07
2022-08-17T04:53:39.236Z,95.02
2022-08-17T04:56:06.126Z,94.53
2022-08-17T04:58:32.662Z,93.28
2022-08-17T05:00:59.562Z,93.60
2022-08-17T05:03:26.147Z,92.98
2022-08-17T05:05:53.711Z,93.34
2022-08-17T05:08:21.197Z,93.26
2022-08-17T05:10:48.299Z,90.69
2022-08-17T05:13:17.601Z,89.39
2022-08-17T05:15:47.786Z,89.16
2022-08-17T05:18:14.956Z,87.93
2022-08-17T05:20:41.664Z,87.70
2022-08-17T05:23:10.702Z,87.24
2022-08-17T05:25:41.134Z,87.38
2022-08-17T05:28:08.887Z,87.91
2022-08-17T05:30:36.130Z,87.89
2022-08-17T05:33:06.611Z,87.69
2022-08-17T05:35:35.329Z,86.44
2022-08-17T05:38:02.036Z,85.88
2022-08-17T05:40:32.865Z,85.79
2022-08-17T05:43:36.602Z,84.04
2022-08-17T05:46:25.338Z,83.95
2022-08-17T05:48:55.096Z,82.41
2022-08-17T05:51:46.048Z,81.01
2022-08-17T05:54:27.208Z,80.67
2022-08-17T05:57:20.946Z,79.99
2022-08-17T05:59:50.759Z,79.12
2022-08-17T06:02:35.937Z,77.12
2022-08-17T06:05:23.491Z,77.06
2022-08-17T06:08:15.439Z,75.46
2022-08-17T06:10:47.826Z,74.65
2022-08-17T06:13:31.682Z,74.13
2022-08-17T06:16:33.554Z,72.48
2022-08-17T06:19:01.559Z,70.55
2022-08-17T06:21:33.455Z,69.56
2022-08-17T06:24:06.703Z,68.45
2022-08-17T06:26:38.554Z,67.89
2022-08-17T06:29:37.213Z,67.43
2022-08-17T06:32:05.649Z,68.13
2022-08-17T06:34:33.877Z,68.27
2022-08-17T06:37:22.021Z,66.07
2022-08-17T06:39:52.835Z,66.18
2022-08-17T06:42:54.759Z,64.53
2022-08-17T06:45:17.904Z,58.72
2022-08-17T06:48:01.156Z,54.15
2022-08-17T06:50:40.690Z,54.64
2022-08-17T06:53:23.689Z,56.12
2022-08-17T06:56:05.409Z,57.82
2022-08-17T06:58:33.396Z,56.20
2022-08-17T07:01:10.806Z,53.85
2022-08-17T07:03:45.705Z,46.04
2022-08-17T07:06:18.014Z,41.85
2022-08-17T07:08:59.749Z,38.35
2022-08-17T07:11:40.563Z,34.84
2022-08-17T07:14:37.727Z,32.79
2022-08-17T07:17:09.443Z,32.93
2022-08-17T07:19:41.094Z,32.11
2022-08-17T07:22:14.078Z,31.52
2022-08-17T07:24:58.089Z,29.61
2022-08-17T07:27:31.211Z,29.83
2022-08-17T07:30:10.226Z,30.50
2022-08-17T07:32:46.363Z,30.08
2022-08-17T07:35:40.965Z,30.01
2022-08-17T07:38:24.920Z,28.86
2022-08-17T07:41:02.113Z,26.91
2022-08-17T07:43:37.746Z,28.37
2022-08-17T07:46:44.936Z,27.99
2022-08-17T07:49:12.548Z,30.05
2022-08-17T07:51:45.737Z,30.85
2022-08-17T07:54:15.314Z,33.59
2022-08-17T07:56:53.563Z,37.28
2022-08-17T07:59:33.567Z,40.28
2022-08-17T08:02:08.183Z,39.23
2022-08-17T08:05:00.945Z,38.60
2022-08-17T08:07:35.920Z,38.62
2022-08-17T08:10:09.550Z,40.00
2022-08-17T08:13:14.199Z,39.51
2022-08-17T08:15:53.691Z,40.31
2022-08-17T08:18:53.866Z,42.38
2022-08-17T08:21:24.469Z,43.79
2022-08-17T08:24:00.277Z,45.19
2022-08-17T08:26:55.535Z,46.88
2022-08-17T08:29:28.431Z,48.52
2022-08-17T08:32:20.503Z,47.56
2022-08-17T08:35:04.916Z,48.76
2022-08-17T08:37:58.278Z,49.90
2022-08-17T08:40:45.582Z,48.59
2022-08-17T08:43:37.295Z,47.31
2022-08-17T08:46:45.721Z,47.43
2022-08-17T08:49:59.097Z,46.65
2022-08-17T08:52:37.424Z,45.55
2022-08-17T08:55:07.777Z,48.30
2022-08-17T08:57:42.618Z,48.77
2022-08-17T09:00:35.895Z,49.55
2022-08-17T09:03:28.114Z,48.46
2022-08-17T09:06:39.402Z,50.09
2022-08-17T09:09:41.775Z,51.21
2022-08-17T09:12:16.798Z,50.28
2022-08-17T09:14:53.299Z,49.96
2022-08-17T09:17:36.675Z,48.45
2022-08-17T09:20:27.177Z,49.03
2022-08-17T09:23:03.974Z,50.34
2022-08-17T09:25:33.277Z,49.99
2022-08-17T09:28:06.674Z,49.91
2022-08-17T09:30:40.723Z,49.18
2022-08-17T09:33:09.385Z,48.81
2022-08-17T09:35:44.578Z,47.40
2022-08-17T09:38:31.766Z,47.59
2022-08-17T09:41:19.545Z,48.35
2022-08-17T09:44:22.574Z,47.89
2022-08-17T09:47:06.226Z,47.15
2022-08-17T09:49:45.407Z,47.68
2022-08-17T09:52:21.234Z,48.61
2022-08-17T09:54:48.848Z,49.19
2022-08-17T09:57:42.443Z,49.21
2022-08-17T10:00:18.748Z,48.54
2022-08-17T10:02:55.796Z,49.63
2022-08-17T10:05:46.463Z,51.93
2022-08-17T10:08:28.771Z,52.16
2022-08-17T10:11:17.453Z,51.30
2022-08-17T10:13:59.647Z,51.15
2022-08-17T10:16:38.976Z,53.02
2022-08-17T10:19:18.872Z,53.09
2022-08-17T10:22:32.704Z,55.04
2022-08-17T10:25:23.960Z,54.71
2022-08-17T10:27:55.580Z,55.32
2022-08-17T10:30:25.489Z,54.26
2022-08-17T10:33:24.160Z,52.59
2022-08-17T10:35:59.491Z,52.48
2022-08-17T10:38:47.956Z,50.50
2022-08-17T10:41:27.883Z,49.38
2022-08-17T10:44:38.519Z,49.57
2022-08-17T10:47:16.663Z,51.31
2022-08-17T10:49:49.647Z,51.98
2022-08-17T10:52:19.388Z,52.61
2022-08-17T10:54:57.896Z,52.86
2022-08-17T10:57:34.499Z,52.08
2022-08-17T11:00:03.239Z,50.13
2022-08-17T11:02:37.995Z,48.22
2022-08-17T11:05:28.661Z,46.41
2022-08-17T11:08:13.968Z,45.77
2022-08-17T11:10:53.332Z,45.23
2022-08-17T11:13:38.741Z,47.36
2022-08-17T11:16:22.291Z,44.33
2022-08-17T11:19:14.845Z,44.29
2022-08-17T11:21:59.990Z,43.06
2022-08-17T11:24:43.391Z,43.16
2022-08-17T11:27:20.136Z,42.31
2022-08-17T11:30:01.474Z,42.66
2022-08-17T11:32:34.016Z,43.30
2022-08-17T11:35:21.898Z,43.22
2022-08-17T11:38:15.052Z,43.98
2022-08-17T11:41:05.754Z,45.76
2022-08-17T11:43:55.457Z,47.23
2022-08-17T11:47:07.940Z,49.82
2022-08-17T11:50:08.213Z,48.15
2022-08-17T11:52:38.642Z,47.82
2022-08-17T11:55:33.505Z,47.87
2022-08-17T11:58:01.887Z,48.13
2022-08-17T12:00:40.684Z,47.54
2022-08-17T12:03:43.406Z,49.08
2022-08-17T12:06:30.498Z,46.90
2022-08-17T12:09:18.400Z,46.49
2022-08-17T12:12:12.763Z,45.79
2022-08-17T12:15:11.543Z,45.23
2022-08-17T12:17:42.736Z,45.67
2022-08-17T12:20:31.089Z,44.04
2022-08-17T12:23:06.553Z,42.83
2022-08-17T12:25:58.302Z,42.13
2022-08-17T12:28:30.755Z,41.43
2022-08-17T12:31:01.644Z,40.78
2022-08-17T12:33:31.139Z,39.11
2022-08-17T12:36:03.321Z,39.50
2022-08-17T12:38:36.276Z,38.17
2022-08-17T12:41:25.123Z,38.82
2022-08-17T12:44:04.568Z,38.82
2022-08-17T12:46:34.128Z,37.26
2022-08-17T12:49:33.405Z,36.75
2022-08-17T12:52:04.402Z,37.34
2022-08-17T12:54:54.103Z,37.38
2022-08-17T12:57:35.084Z,38.20
2022-08-17T13:00:20.021Z,38.64
2022-08-17T13:02:51.291Z,39.48
2022-08-17T13:05:33.596Z,41.11
2022-08-17T13:08:00.297Z,41.57
2022-08-17T13:10:33.435Z,43.61
2022-08-17T13:13:17.621Z,44.94
2022-08-17T13:15:53.455Z,46.61
2022-08-17T13:18:42.317Z,46.34
2022-08-17T13:21:11.828Z,47.33
2022-08-17T13:23:38.391Z,46.86
2022-08-17T13:26:17.276Z,48.11
2022-08-17T13:28:48.518Z,47.75
2022-08-17T13:31:24.118Z,48.63
2022-08-17T13:33:51.009Z,48.61
2022-08-17T13:36:30.119Z,49.04
2022-08-17T13:39:21.255Z,47.78
2022-08-17T13:41:49.428Z,46.70
2022-08-17T13:44:37.127Z,43.50
2022-08-17T13:47:17.470Z,43.23
2022-08-17T13:49:48.659Z,42.32
2022-08-17T13:52:37.920Z,42.54
2022-08-17T13:55:17.153Z,41.09
2022-08-17T13:58:03.619Z,39.13
2022-08-17T14:00:36.248Z,38.58
2022-08-17T14:03:04.148Z,38.14
2022-08-17T14:05:31.346Z,38.51
2022-08-17T14:08:02.656Z,38.29
2022-08-17T14:10:35.857Z,38.70
2022-08-17T14:13:03.109Z,38.84
2022-08-17T14:15:55.349Z,39.39
2022-08-17T14:18:18.102Z,40.66
2022-08-17T14:21:08.302Z,38.20
2022-08-17T14:23:36.184Z,37.76
2022-08-17T14:26:03.529Z,38.28
2022-08-17T14:28:30.012Z,38.99
2022-08-17T14:31:00.348Z,38.58
2022-08-17T14:33:28.298Z,38.07
2022-08-17T14:35:56.014Z,36.94
2022-08-17T14:38:23.564Z,36.58
2022-08-17T14:40:50.277Z,37.67
2022-08-17T14:43:17.964Z,38.37
2022-08-17T14:45:44.509Z,39.02
2022-08-17T14:48:11.165Z,39.82
2022-08-17T14:50:41.077Z,39.44
2022-08-17T14:53:09.997Z,41.84
2022-08-17T14:55:39.877Z,40.93
2022-08-17T14:58:06.959Z,41.87
2022-08-17T15:00:33.854Z,42.36
2022-08-17T15:03:01.289Z,42.71
2022-08-17T15:05:31.645Z,41.91
2022-08-17T15:07:59.375Z,42.03
2022-08-17T15:10:26.125Z,42.57
2022-08-17T15:12:52.730Z,42.16
2022-08-17T15:15:19.880Z,43.21
2022-08-17T15:17:46.449Z,43.67
2022-08-17T15:20:18.749Z,43.85
2022-08-17T15:22:46.804Z,44.09
2022-08-17T15:25:14.249Z,44.87
2022-08-17T15:27:40.859Z,45.85
2022-08-17T15:30:08.547Z,46.85
2022-08-17T15:32:38.105Z,47.96
2022-08-17T15:35:06.740Z,46.96
2022-08-17T15:37:33.411Z,47.14
2022-08-17T15:40:01.294Z,49.26
2022-08-17T15:42:27.964Z,49.83
2022-08-17T15:44:57.604Z,45.84
2022-08-17T15:47:24.879Z,47.49
2022-08-17T15:49:53.581Z,46.63
2022-08-17T15:52:27.692Z,46.69
2022-08-17T15:54:59.662Z,48.04
2022-08-17T15:57:27.460Z,47.42
2022-08-17T15:59:59.028Z,48.06
2022-08-17T16:03:15.987Z,46.78
2022-08-17T16:05:24.094Z,48.30
2022-08-17T16:07:52.072Z,48.14
2022-08-17T16:10:19.497Z,46.43
2022-08-17T16:12:48.473Z,47.78
2022-08-17T16:15:16.586Z,47.41
2022-08-17T16:17:43.090Z,47.38
2022-08-17T16:20:19.928Z,47.66
2022-08-17T16:22:48.685Z,50.31
2022-08-17T16:25:21.285Z,49.34
2022-08-17T16:27:53.528Z,48.00
2022-08-17T16:30:23.186Z,48.63
2022-08-17T16:32:54.320Z,48.82
2022-08-17T16:35:22.711Z,49.17
2022-08-17T16:37:49.507Z,49.63
2022-08-17T16:40:16.845Z,48.45
2022-08-17T16:42:45.893Z,49.05
2022-08-17T16:45:18.483Z,49.54
2022-08-17T16:47:45.473Z,49.47
2022-08-17T16:50:13.925Z,50.30
2022-08-17T16:52:40.825Z,51.14
2022-08-17T16:55:09.365Z,51.16
2022-08-17T16:57:47.505Z,51.86
2022-08-17T17:00:19.204Z,51.95
2022-08-17T17:02:47.770Z,52.55
2022-08-17T17:05:25.198Z,53.34
2022-08-17T17:08:04.020Z,53.61
2022-08-17T17:10:43.277Z,54.24
2022-08-17T17:13:14.729Z,54.91
2022-08-17T17:15:55.180Z,55.74
2022-08-17T17:18:30.318Z,55.98
2022-08-17T17:20:58.218Z,56.80
2022-08-17T17:23:38.569Z,57.96
2022-08-17T17:26:23.748Z,57.76
2022-08-17T17:29:05.763Z,58.54
2022-08-17T17:31:38.438Z,58.54
2022-08-17T17:34:07.340Z,59.58
2022-08-17T17:36:52.638Z,59.58
2022-08-17T17:39:33.589Z,60.24
2022-08-17T17:42:07.772Z,60.68
2022-08-17T17:44:39.192Z,60.64
2022-08-17T17:47:06.075Z,61.63
2022-08-17T17:49:39.687Z,63.18
2022-08-17T17:52:19.174Z,63.32
2022-08-17T17:55:25.533Z,63.77
2022-08-17T17:58:11.009Z,64.35
2022-08-17T18:00:40.549Z,64.58
2022-08-17T18:03:40.358Z,65.53
2022-08-17T18:06:12.605Z,66.36
2022-08-17T18:08:50.746Z,66.61
2022-08-17T18:11:41.392Z,67.32
2022-08-17T18:14:27.428Z,67.40
2022-08-17T18:16:56.743Z,68.10
2022-08-17T18:19:25.567Z,67.79
2022-08-17T18:22:03.345Z,68.30
2022-08-17T18:24:39.574Z,67.67
2022-08-17T18:27:37.548Z,67.41
2022-08-17T18:30:27.618Z,67.38
2022-08-17T18:32:54.295Z,68.30
2022-08-17T18:35:22.235Z,67.76
2022-08-17T18:37:52.614Z,68.73
2022-08-17T18:40:19.633Z,68.73
2022-08-17T18:42:55.522Z,69.02
2022-08-17T18:45:33.556Z,70.14
2022-08-17T18:48:00.933Z,70.54
2022-08-17T18:50:36.479Z,70.56
2022-08-17T18:53:30.177Z,71.13
2022-08-17T18:56:27.852Z,71.96
2022-08-17T18:59:04.428Z,71.89
2022-08-17T19:02:03.303Z,72.23
2022-08-17T19:04:39.463Z,72.40
2022-08-17T19:07:13.176Z,73.00
2022-08-17T19:09:49.252Z,72.96
2022-08-17T19:12:44.589Z,73.41
2022-08-17T19:15:14.188Z,74.04
2022-08-17T19:17:50.234Z,74.56
2022-08-17T19:20:27.084Z,75.33
2022-08-17T19:23:07.290Z,75.52
2022-08-17T19:25:38.281Z,75.44
2022-08-17T19:28:22.225Z,75.20
2022-08-17T19:30:54.206Z,76.01
2022-08-17T19:33:20.904Z,75.78
2022-08-17T19:35:55.538Z,75.91
2022-08-17T19:38:34.280Z,76.25
2022-08-17T19:41:07.723Z,76.47
2022-08-17T19:44:07.051Z,77.04
2022-08-17T19:46:56.362Z,76.73
2022-08-17T19:49:52.786Z,76.98
2022-08-17T19:52:37.672Z,77.28
2022-08-17T19:55:30.663Z,77.42
2022-08-17T19:58:18.058Z,77.39
2022-08-17T20:00:50.321Z,77.86
2022-08-17T20:03:28.364Z,77.95
2022-08-17T20:06:12.669Z,78.49
2022-08-17T20:08:45.094Z,78.30
2022-08-17T20:11:19.892Z,78.42
2022-08-17T20:13:59.041Z,78.58
2022-08-17T20:16:26.175Z,79.43
2022-08-17T20:18:59.812Z,79.25
2022-08-17T20:21:37.293Z,79.24
2022-08-17T20:24:17.994Z,80.08
2022-08-17T20:26:57.981Z,80.15
2022-08-17T20:29:37.445Z,79.80
2022-08-17T20:32:15.082Z,79.67
2022-08-17T20:34:45.520Z,79.79
2022-08-17T20:37:14.739Z,79.82
2022-08-17T20:40:09.576Z,80.36
2022-08-17T20:42:36.993Z,80.47
2022-08-17T20:45:25.106Z,80.99
2022-08-17T20:48:30.872Z,80.77
2022-08-17T20:50:52.751Z,81.04
2022-08-17T20:53:54.043Z,80.46
2022-08-17T20:56:45.097Z,80.71
2022-08-17T20:59:20.421Z,80.09
2022-08-17T21:02:08.055Z,81.43
2022-08-17T21:05:00.767Z,81.17
2022-08-17T21:07:33.043Z,81.42
2022-08-17T21:10:28.297Z,82.47
2022-08-17T21:13:16.019Z,82.65
2022-08-17T21:15:48.529Z,82.90
2022-08-17T21:18:18.370Z,82.74
2022-08-17T21:21:06.695Z,82.09
2022-08-17T21:23:49.617Z,82.14
2022-08-17T21:26:32.760Z,82.73
2022-08-17T21:29:17.906Z,83.99
2022-08-17T21:32:05.383Z,84.32
2022-08-17T21:34:43.337Z,83.59
2022-08-17T21:37:30.874Z,84.12
2022-08-17T21:40:19.661Z,84.53
2022-08-17T21:42:49.510Z,84.45
2022-08-17T21:45:37.506Z,83.62
2022-08-17T21:48:08.997Z,83.15
2022-08-17T21:50:35.998Z,83.20
2022-08-17T21:53:03.463Z,83.22
2022-08-17T21:55:31.782Z,83.32
2022-08-17T21:58:14.742Z,82.85
2022-08-17T22:00:44.038Z,83.29
2022-08-17T22:03:23.465Z,82.84
2022-08-17T22:05:51.555Z,83.40
2022-08-17T22:08:21.285Z,84.08
2022-08-17T22:10:50.512Z,84.33
2022-08-17T22:13:17.608Z,83.84
2022-08-17T22:15:50.287Z,84.24
2022-08-17T22:18:27.189Z,84.75
2022-08-17T22:20:56.809Z,84.97
2022-08-17T22:23:54.130Z,84.37
2022-08-17T22:26:23.066Z,84.87
2022-08-17T22:28:56.647Z,84.78
2022-08-17T22:31:25.326Z,84.72
2022-08-17T22:33:59.791Z,84.73
2022-08-17T22:36:33.907Z,84.86
2022-08-17T22:39:01.379Z,85.07
2022-08-17T22:41:47.028Z,85.34
2022-08-17T22:44:17.715Z,85.53
2022-08-17T22:47:13.886Z,85.36
2022-08-17T22:49:57.128Z,85.61
2022-08-17T22:53:01.652Z,86.05
2022-08-17T22:55:48.998Z,86.60
2022-08-17T22:58:37.385Z,87.27
2022-08-17T23:01:28.609Z,87.89
2022-08-17T23:04:07.262Z,87.97
2022-08-17T23:06:35.225Z,88.48
2022-08-17T23:09:04.370Z,88.30
2022-08-17T23:11:48.615Z,88.91
2022-08-17T23:14:20.496Z,89.36
2022-08-17T23:16:48.962Z,89.78
2022-08-17T23:19:20.211Z,89.55
2022-08-17T23:21:47.077Z,89.40
2022-08-17T23:24:25.564Z,89.34
2022-08-17T23:26:52.244Z,89.39
2022-08-17T23:29:21.329Z,89.63
2022-08-17T23:31:49.186Z,90.18
2022-08-17T23:34:18.307Z,89.76
2022-08-17T23:36:50.533Z,89.72
2022-08-17T23:39:24.703Z,89.94
2022-08-17T23:41:56.828Z,89.94
2022-08-17T23:44:23.468Z,90.19
2022-08-17T23:46:54.005Z,90.96
2022-08-17T23:49:20.871Z,90.81
2022-08-17T23:51:48.123Z,90.94
2022-08-17T23:54:35.453Z,91.06
2022-08-17T23:57:04.720Z,92.31
2022-08-17T23:59:33.369Z,92.47
